Long Beach /Daugherty Field/ Airport
KLGB : now visible

Airfield :











YOU CAN JOIN US ON...

 
LOGIN :

Register | Disclaimer

   EN    FR    IT 

 









Legend :    VFR   Marginal VFR   IFR   Intensive IFR   Very Intensive IFR
Visi :
Ceiling :
>= 8 km
>= 3000ft
5 to 8 km
1000 to 3000 ft
1500m to 5 km
500 to 1000 ft
800 to 1500m
200 to 500 ft
< 800m
< 200 ft
Symbols :   Thunderstorms  Fog  Heavy snow  Heavy precipitations  Wind > 20 kt






- Airport Elevation : 60 ft
- IATA code : LGB


KLGB - Long Beach /Daugherty Field/

CURRENT METAR :
  • 161153Z AUTO 30003KT 10SM CLR 08/01 A3015 RMK AO2 SLP210 T00780006 10111 20072 51006

EXPIRED METARs :
  • 161053Z 00000KT 10SM CLR 09/00 A3015 RMK AO2 SLP209 T00890000
  • 160953Z 35006KT 10SM CLR 08/01 A3014 RMK AO2 SLP207 T00830006

TAF KLGB
Valid from the 16 at 12:00 until the 17 at 12:00 UTC


161123Z 1612/1712 VRB03KT P6SM SKC
FM161700 05010KT P6SM SKC
FM162300 VRB03KT P6SM SKC



MET'MAP, your aeronautical weather chart ! - Copyright ORBIFLY December 2007 - Disclaimer

ORBIFLY MET'MAP TEAM :

Programming & Development : Alexandra Zaïnal
Concept & original design : Baudouin d'Aumeries
Assistance for programming : Marc-Olivier Méhu
Technical & hardware support : Manuel Goepfert

Contact : metmap@orbifly.com




SOURCES & CREDITS :

   NOAA       Earth
Advisory